KELP/ELP METAR and TAF weather

Enter ICAO airport designator
Station Type Date Time Source
KELP METAR 2020/02/29 01:51 UTC NOAA

KELP 290151Z 01004KT 10SM BKN180 BKN220 16/M10 A3027 RMK AO2 SLP223 T01561100


Station Type Date Time Source
KELP Decoded METAR 2020/02/29 01:51 UTC NOAA

EL PASO INTERNATIONAL AIRPORT , TX, United States (KELP) 31-49N 106-23W 1197M
Feb 28, 2020 - 08:51 PM EST / 2020.02.29 0151 UTC
Wind: from the N (010 degrees) at 5 MPH (4 KT):0
Visibility: 10 mile(s):0
Sky conditions: mostly cloudy
Temperature: 60.1 F (15.6 C)
Dew Point: 14.0 F (-10.0 C)
Relative Humidity: 16%
Pressure (altimeter): 30.27 in. Hg (1025 hPa)
ob: KELP 290151Z 01004KT 10SM BKN180 BKN220 16/M10 A3027 RMK AO2 SLP223 T01561100
cycle: 2

Station Type Date Time Source
KELP TAF 2020/02/28 18:28 UTC NOAA

TAF KELP 281726Z 2818/2918 VRB04KT P6SM SCT150 BKN250
FM282000 14007KT P6SM SCT150 OVC250
FM290600 09005KT P6SM SCT250

Example: see airport list